deformed-offering
Saratoga-Weather Station Historical Data
 
Daily Summary for July 05, 2022 Units:  English    Metric   Both
Daily Weekly Monthly Yearly
  Current: High: Low: Average:
Temperature: 66.2 °F 69.4 °F 66.2 °F 67.8 °F
Dew Point: 59.1 °F 61.3 °F 59.1 °F 60.3 °F
Humidity: 78% 78% 74% 77%
Wind Speed: 0.1mph 1.8mph 0mph 0.8mph
Wind Gust: 1.2mph 4mph - -
WindENE - - ENE
Pressure: 29.92 in 29.94 in 29.91 in -
Precipitation: 0.00 in      
 
 
Tabular Data for July 05, 2022
Time Temperature Dew Point Pressure Wind Wind Speed Wind Gust Humidity Rainfall Rate (Hourly) solar
00:09 69.4 °F 60.8 °F 29.94 in ENE 0.9 mph 2.3 mph 74% 0.00 in 0 W/m2
00:14 69.3 °F 60.7 °F 29.94 in NE 1.1 mph 3.5 mph 74% 0.00 in 0 W/m2
00:19 69.3 °F 60.7 °F 29.94 in NE 1.5 mph 3.5 mph 74% 0.00 in 0 W/m2
00:24 69.3 °F 60.7 °F 29.94 in NE 1.1 mph 3.5 mph 74% 0.00 in 0 W/m2
00:29 69.3 °F 60.8 °F 29.93 in NE 1.4 mph 2.3 mph 74.3% 0.00 in 0 W/m2
00:34 69.3 °F 61 °F 29.93 in NE 1.5 mph 3.5 mph 75% 0.00 in 0 W/m2
00:39 69.3 °F 61 °F 29.93 in NNE 1.7 mph 4 mph 75% 0.00 in 0 W/m2
00:44 69.3 °F 61 °F 29.93 in NE 1.8 mph 4 mph 75% 0.00 in 0 W/m2
00:49 69.1 °F 60.8 °F 29.93 in ENE 0.8 mph 3 mph 75% 0.00 in 0 W/m2
00:54 69.1 °F 60.8 °F 29.93 in NE 1.4 mph 3.5 mph 75% 0.00 in 0 W/m2
00:59 69.1 °F 60.8 °F 29.93 in NE 1.4 mph 3.5 mph 75% 0.00 in 0 W/m2
01:04 69 °F 60.7 °F 29.93 in North 1.1 mph 3 mph 75% 0.00 in 0 W/m2
01:09 68.9 °F 60.6 °F 29.93 in NNE 1.1 mph 2.3 mph 75% 0.00 in 0 W/m2
01:14 68.9 °F 60.9 °F 29.93 in NE 1.1 mph 2.3 mph 75.8% 0.00 in 0 W/m2
01:19 68.9 °F 61 °F 29.93 in NE 1.1 mph 3.5 mph 76% 0.00 in 0 W/m2
01:24 68.8 °F 60.9 °F 29.93 in NE 0.7 mph 3 mph 76% 0.00 in 0 W/m2
01:29 68.8 °F 61 °F 29.93 in NE 0.8 mph 3.5 mph 76.3% 0.00 in 0 W/m2
01:34 68.8 °F 61.3 °F 29.93 in ENE 1.1 mph 3.5 mph 77% 0.00 in 0 W/m2
01:39 68.6 °F 61.1 °F 29.93 in East 0.6 mph 2.3 mph 77% 0.00 in 0 W/m2
01:44 68.6 °F 61.1 °F 29.93 in East 1.4 mph 2.3 mph 77% 0.00 in 0 W/m2
01:49 68.4 °F 61.3 °F 29.93 in East 1.1 mph 3.5 mph 77.9% 0.00 in 0 W/m2
01:54 68.4 °F 61.3 °F 29.92 in ENE 1.4 mph 3.5 mph 78% 0.00 in 0 W/m2
01:59 68.4 °F 61.3 °F 29.92 in East 1.8 mph 4 mph 78% 0.00 in 0 W/m2
02:04 68.3 °F 61.2 °F 29.92 in East 1.2 mph 4 mph 78% 0.00 in 0 W/m2
02:09 68.2 °F 61.1 °F 29.92 in East 0.5 mph 3 mph 78% 0.00 in 0 W/m2
02:14 68.1 °F 61 °F 29.92 in Calm   2 mph 78% 0.00 in 0 W/m2
02:19 68.1 °F 61 °F 29.92 in East 0.1 mph 1.2 mph 78% 0.00 in 0 W/m2
02:24 68.1 °F 61 °F 29.92 in East 0.9 mph 2.3 mph 78% 0.00 in 0 W/m2
02:29 68.1 °F 61 °F 29.92 in East 0.8 mph 2.3 mph 78% 0.00 in 0 W/m2
02:34 67.9 °F 60.8 °F 29.92 in East 0.4 mph 2.3 mph 78% 0.00 in 0 W/m2
02:39 67.9 °F 60.8 °F 29.92 in East 0.7 mph 2.3 mph 78% 0.00 in 0 W/m2
02:44 67.9 °F 60.8 °F 29.92 in East 0.1 mph 2 mph 78% 0.00 in 0 W/m2
02:49 67.8 °F 60.7 °F 29.92 in East 0.4 mph 2.3 mph 78% 0.00 in 0 W/m2
02:54 67.8 °F 60.7 °F 29.92 in East 1.1 mph 2.3 mph 78% 0.00 in 0 W/m2
02:59 67.8 °F 60.7 °F 29.92 in East 0.6 mph 2.3 mph 78% 0.00 in 0 W/m2
03:04 67.8 °F 60.7 °F 29.92 in East 1.3 mph 3.5 mph 78% 0.00 in 0 W/m2
03:09 67.6 °F 60.2 °F 29.92 in East 0.3 mph 3 mph 77.2% 0.00 in 0 W/m2
03:14 67.6 °F 60.1 °F 29.92 in East 1.2 mph 3 mph 77% 0.00 in 0 W/m2
03:19 67.4 °F 59.7 °F 29.92 in East 1.8 mph 3.5 mph 76.1% 0.00 in 0 W/m2
03:24 67.3 °F 59.5 °F 29.91 in East 1.1 mph 3 mph 76% 0.00 in 0 W/m2
03:29 67.3 °F 59.7 °F 29.91 in East 0.6 mph 2.3 mph 76.8% 0.00 in 0 W/m2
03:34 67.3 °F 59.8 °F 29.91 in East 0.5 mph 2 mph 77% 0.00 in 0 W/m2
03:39 67.1 °F 59.6 °F 29.91 in East 0.5 mph 2.3 mph 77% 0.00 in 0 W/m2
03:44 67.1 °F 59.6 °F 29.91 in East 0.1 mph 2 mph 77% 0.00 in 0 W/m2
03:49 67.1 °F 59.6 °F 29.91 in Calm   1 mph 77% 0.00 in 0 W/m2
03:54 66.9 °F 59.8 °F 29.91 in Calm     77.9% 0.00 in 0 W/m2
03:59 66.9 °F 59.8 °F 29.91 in Calm     78% 0.00 in 0 W/m2
04:04 66.9 °F 59.8 °F 29.91 in Calm     78% 0.00 in 0 W/m2
04:09 66.9 °F 59.8 °F 29.91 in Calm   1 mph 78% 0.00 in 0 W/m2
04:14 66.9 °F 59.8 °F 29.91 in East 0.6 mph 2.3 mph 78% 0.00 in 0 W/m2
04:19 66.8 °F 59.7 °F 29.91 in East 0.5 mph 2.3 mph 78% 0.00 in 0 W/m2
04:24 66.8 °F 59.7 °F 29.91 in Calm   2 mph 78% 0.00 in 0 W/m2
04:29 66.8 °F 59.7 °F 29.91 in East 0.6 mph 2.3 mph 78% 0.00 in 0 W/m2
04:34 66.6 °F 59.5 °F 29.91 in East 0.9 mph 3.5 mph 78% 0.00 in 0 W/m2
04:39 66.6 °F 59.5 °F 29.91 in East 0.8 mph 3.5 mph 78% 0.00 in 0 W/m2
04:44 66.6 °F 59.5 °F 29.91 in ENE 1 mph 3.5 mph 78% 0.00 in 0 W/m2
04:49 66.4 °F 59.3 °F 29.91 in ENE 0.3 mph 3 mph 78% 0.00 in 0 W/m2
04:54 66.4 °F 59.3 °F 29.91 in ENE 0.1 mph 2 mph 78% 0.00 in 0 W/m2
04:59 66.4 °F 59.3 °F 29.91 in ENE 0.5 mph 2.3 mph 78% 0.00 in 0 W/m2
05:04 66.4 °F 59.3 °F 29.91 in ENE 0.8 mph 2.3 mph 78% 0.00 in 0 W/m2
05:09 66.3 °F 59.2 °F 29.91 in ENE 0.4 mph 2.3 mph 78% 0.00 in 0 W/m2
05:14 66.3 °F 59.2 °F 29.91 in Calm   2 mph 78% 0.00 in 0 W/m2
05:19 66.3 °F 59.2 °F 29.91 in ENE 0.5 mph 1.2 mph 78% 0.00 in 0 W/m2
05:24 66.3 °F 59.2 °F 29.91 in ENE 0.6 mph 1.2 mph 78% 0.00 in 0 W/m2
05:29 66.3 °F 59.2 °F 29.91 in ENE 0.6 mph 1.2 mph 78% 0.00 in 0 W/m2
05:34 66.3 °F 59.2 °F 29.92 in Calm   1 mph 78% 0.00 in 0 W/m2
05:39 66.2 °F 59.1 °F 29.92 in ENE 0.1 mph 1.2 mph 78% 0.00 in 0 W/m2
Saratoga, California, USA
Compliments of Weather Underground - 2 mb

WU-history PHP script courtesy of Juneau County Weather and modified for WU/TWC API use by Saratoga-weather.org

This script set is available on GitHub.

deformed-offering